sensor_id;sensor_type;location;lat;lon;timestamp;P1;durP1;ratioP1;P2;durP2;ratioP2
42770;SDS011;28426;42.872;25.314;2022-11-15T00:01:49;26.10;;;16.50;;
42770;SDS011;28426;42.872;25.314;2022-11-15T00:04:41;27.77;;;16.45;;
42770;SDS011;28426;42.872;25.314;2022-11-15T00:07:30;24.02;;;15.48;;
42770;SDS011;28426;42.872;25.314;2022-11-15T00:10:39;24.98;;;14.93;;
42770;SDS011;28426;42.872;25.314;2022-11-15T00:13:28;27.67;;;16.52;;
42770;SDS011;28426;42.872;25.314;2022-11-15T00:16:18;24.10;;;15.55;;
42770;SDS011;28426;42.872;25.314;2022-11-15T00:19:07;25.50;;;16.70;;
42770;SDS011;28426;42.872;25.314;2022-11-15T00:21:59;31.27;;;18.52;;
42770;SDS011;28426;42.872;25.314;2022-11-15T00:24:48;24.60;;;16.33;;
42770;SDS011;28426;42.872;25.314;2022-11-15T00:27:38;27.05;;;16.92;;
42770;SDS011;28426;42.872;25.314;2022-11-15T00:30:27;26.55;;;15.77;;
42770;SDS011;28426;42.872;25.314;2022-11-15T00:33:17;24.73;;;14.20;;
42770;SDS011;28426;42.872;25.314;2022-11-15T00:36:07;21.77;;;12.80;;
42770;SDS011;28426;42.872;25.314;2022-11-15T00:39:00;23.17;;;15.75;;
42770;SDS011;28426;42.872;25.314;2022-11-15T00:41:49;28.23;;;16.05;;
42770;SDS011;28426;42.872;25.314;2022-11-15T00:44:38;27.95;;;17.13;;
42770;SDS011;28426;42.872;25.314;2022-11-15T00:47:30;28.02;;;17.30;;
42770;SDS011;28426;42.872;25.314;2022-11-15T00:50:19;25.83;;;16.45;;
42770;SDS011;28426;42.872;25.314;2022-11-15T00:53:08;24.58;;;16.27;;
42770;SDS011;28426;42.872;25.314;2022-11-15T00:56:00;23.95;;;15.63;;
42770;SDS011;28426;42.872;25.314;2022-11-15T00:58:50;22.85;;;14.30;;
42770;SDS011;28426;42.872;25.314;2022-11-15T01:01:39;22.88;;;15.15;;
42770;SDS011;28426;42.872;25.314;2022-11-15T01:04:28;20.73;;;14.57;;
42770;SDS011;28426;42.872;25.314;2022-11-15T01:07:17;24.73;;;14.40;;
42770;SDS011;28426;42.872;25.314;2022-11-15T01:10:07;21.20;;;13.60;;
42770;SDS011;28426;42.872;25.314;2022-11-15T01:12:59;20.58;;;13.65;;
42770;SDS011;28426;42.872;25.314;2022-11-15T01:15:48;25.33;;;15.77;;
42770;SDS011;28426;42.872;25.314;2022-11-15T01:18:38;23.50;;;15.48;;
42770;SDS011;28426;42.872;25.314;2022-11-15T01:21:27;23.98;;;15.57;;
42770;SDS011;28426;42.872;25.314;2022-11-15T01:24:17;24.85;;;15.02;;
42770;SDS011;28426;42.872;25.314;2022-11-15T01:27:06;22.60;;;15.13;;
42770;SDS011;28426;42.872;25.314;2022-11-15T01:29:58;21.98;;;14.40;;
42770;SDS011;28426;42.872;25.314;2022-11-15T01:32:47;19.75;;;13.40;;
42770;SDS011;28426;42.872;25.314;2022-11-15T01:35:38;22.38;;;14.73;;
42770;SDS011;28426;42.872;25.314;2022-11-15T01:38:28;20.10;;;13.35;;
42770;SDS011;28426;42.872;25.314;2022-11-15T01:41:18;18.35;;;12.00;;
42770;SDS011;28426;42.872;25.314;2022-11-15T01:47:36;15.50;;;10.57;;
42770;SDS011;28426;42.872;25.314;2022-11-15T01:53:19;18.65;;;11.88;;
42770;SDS011;28426;42.872;25.314;2022-11-15T01:56:13;20.08;;;14.20;;
42770;SDS011;28426;42.872;25.314;2022-11-15T01:59:05;23.98;;;13.52;;
42770;SDS011;28426;42.872;25.314;2022-11-15T02:01:56;21.73;;;13.68;;
42770;SDS011;28426;42.872;25.314;2022-11-15T02:04:48;22.10;;;14.32;;
42770;SDS011;28426;42.872;25.314;2022-11-15T02:07:37;33.17;;;19.63;;
42770;SDS011;28426;42.872;25.314;2022-11-15T02:10:27;28.50;;;17.30;;
42770;SDS011;28426;42.872;25.314;2022-11-15T02:13:16;26.77;;;16.23;;
42770;SDS011;28426;42.872;25.314;2022-11-15T02:16:27;21.98;;;13.90;;
42770;SDS011;28426;42.872;25.314;2022-11-15T02:19:28;23.30;;;14.88;;
42770;SDS011;28426;42.872;25.314;2022-11-15T02:22:42;20.80;;;13.50;;
42770;SDS011;28426;42.872;25.314;2022-11-15T02:25:41;20.38;;;13.60;;
42770;SDS011;28426;42.872;25.314;2022-11-15T02:28:48;17.98;;;11.57;;
42770;SDS011;28426;42.872;25.314;2022-11-15T02:31:50;16.20;;;11.25;;
42770;SDS011;28426;42.872;25.314;2022-11-15T02:34:46;16.58;;;11.25;;
42770;SDS011;28426;42.872;25.314;2022-11-15T02:37:44;14.98;;;11.02;;
42770;SDS011;28426;42.872;25.314;2022-11-15T02:40:41;17.95;;;12.60;;
42770;SDS011;28426;42.872;25.314;2022-11-15T02:43:36;16.65;;;12.48;;
42770;SDS011;28426;42.872;25.314;2022-11-15T02:46:45;19.85;;;12.65;;
42770;SDS011;28426;42.872;25.314;2022-11-15T02:49:54;16.85;;;12.32;;
42770;SDS011;28426;42.872;25.314;2022-11-15T02:52:47;15.20;;;10.93;;
42770;SDS011;28426;42.872;25.314;2022-11-15T02:55:38;14.63;;;10.63;;
42770;SDS011;28426;42.872;25.314;2022-11-15T02:58:44;16.35;;;11.07;;
42770;SDS011;28426;42.872;25.314;2022-11-15T03:01:43;17.15;;;12.20;;
42770;SDS011;28426;42.872;25.314;2022-11-15T03:04:47;16.38;;;11.15;;
42770;SDS011;28426;42.872;25.314;2022-11-15T03:07:43;15.25;;;10.70;;
42770;SDS011;28426;42.872;25.314;2022-11-15T03:10:47;15.00;;;10.55;;
42770;SDS011;28426;42.872;25.314;2022-11-15T03:13:46;16.80;;;11.48;;
42770;SDS011;28426;42.872;25.314;2022-11-15T03:16:42;16.00;;;11.57;;
42770;SDS011;28426;42.872;25.314;2022-11-15T03:19:38;17.63;;;11.73;;
42770;SDS011;28426;42.872;25.314;2022-11-15T03:22:36;18.08;;;12.40;;
42770;SDS011;28426;42.872;25.314;2022-11-15T03:25:29;16.92;;;11.70;;
42770;SDS011;28426;42.872;25.314;2022-11-15T03:28:22;15.55;;;11.70;;
42770;SDS011;28426;42.872;25.314;2022-11-15T03:31:16;17.97;;;12.33;;
42770;SDS011;28426;42.872;25.314;2022-11-15T03:34:24;15.73;;;10.43;;
42770;SDS011;28426;42.872;25.314;2022-11-15T03:37:17;14.43;;;10.43;;
42770;SDS011;28426;42.872;25.314;2022-11-15T03:40:11;13.45;;;9.15;;
42770;SDS011;28426;42.872;25.314;2022-11-15T03:43:02;14.48;;;9.43;;
42770;SDS011;28426;42.872;25.314;2022-11-15T03:45:58;16.17;;;9.98;;
42770;SDS011;28426;42.872;25.314;2022-11-15T03:48:53;14.70;;;10.65;;
42770;SDS011;28426;42.872;25.314;2022-11-15T03:51:47;15.50;;;10.38;;
42770;SDS011;28426;42.872;25.314;2022-11-15T03:54:44;16.33;;;10.48;;
42770;SDS011;28426;42.872;25.314;2022-11-15T03:57:39;13.68;;;10.00;;
42770;SDS011;28426;42.872;25.314;2022-11-15T04:00:28;15.38;;;11.07;;
42770;SDS011;28426;42.872;25.314;2022-11-15T04:03:17;13.20;;;9.60;;
42770;SDS011;28426;42.872;25.314;2022-11-15T04:06:06;12.55;;;9.07;;
42770;SDS011;28426;42.872;25.314;2022-11-15T04:08:56;16.48;;;9.60;;
42770;SDS011;28426;42.872;25.314;2022-11-15T04:11:45;12.88;;;8.77;;
42770;SDS011;28426;42.872;25.314;2022-11-15T04:14:37;14.18;;;9.43;;
42770;SDS011;28426;42.872;25.314;2022-11-15T04:17:47;13.60;;;9.13;;
42770;SDS011;28426;42.872;25.314;2022-11-15T04:20:37;15.25;;;10.38;;
42770;SDS011;28426;42.872;25.314;2022-11-15T04:23:39;13.98;;;9.60;;
42770;SDS011;28426;42.872;25.314;2022-11-15T04:26:40;13.18;;;9.10;;
42770;SDS011;28426;42.872;25.314;2022-11-15T04:29:29;12.90;;;8.93;;
42770;SDS011;28426;42.872;25.314;2022-11-15T04:32:27;14.75;;;9.82;;
42770;SDS011;28426;42.872;25.314;2022-11-15T04:35:16;14.07;;;9.50;;
42770;SDS011;28426;42.872;25.314;2022-11-15T04:38:06;16.50;;;9.70;;
42770;SDS011;28426;42.872;25.314;2022-11-15T04:40:56;13.68;;;9.30;;
42770;SDS011;28426;42.872;25.314;2022-11-15T04:43:45;12.65;;;8.20;;
42770;SDS011;28426;42.872;25.314;2022-11-15T04:46:35;12.82;;;8.70;;
42770;SDS011;28426;42.872;25.314;2022-11-15T04:49:26;12.73;;;9.00;;
42770;SDS011;28426;42.872;25.314;2022-11-15T04:52:15;12.98;;;9.25;;
42770;SDS011;28426;42.872;25.314;2022-11-15T04:55:05;12.57;;;9.35;;
42770;SDS011;28426;42.872;25.314;2022-11-15T04:57:57;15.70;;;10.00;;
42770;SDS011;28426;42.872;25.314;2022-11-15T05:00:47;15.02;;;10.55;;
42770;SDS011;28426;42.872;25.314;2022-11-15T05:03:36;13.30;;;9.40;;
42770;SDS011;28426;42.872;25.314;2022-11-15T05:06:40;20.15;;;13.65;;
42770;SDS011;28426;42.872;25.314;2022-11-15T05:09:29;15.77;;;10.35;;
42770;SDS011;28426;42.872;25.314;2022-11-15T05:12:18;13.70;;;9.50;;
42770;SDS011;28426;42.872;25.314;2022-11-15T05:15:08;13.85;;;10.00;;
42770;SDS011;28426;42.872;25.314;2022-11-15T05:17:58;18.00;;;10.23;;
42770;SDS011;28426;42.872;25.314;2022-11-15T05:20:47;14.43;;;10.52;;
42770;SDS011;28426;42.872;25.314;2022-11-15T05:23:40;16.48;;;11.43;;
42770;SDS011;28426;42.872;25.314;2022-11-15T05:26:29;15.85;;;11.00;;
42770;SDS011;28426;42.872;25.314;2022-11-15T05:29:21;15.82;;;10.60;;
42770;SDS011;28426;42.872;25.314;2022-11-15T05:32:11;17.00;;;11.35;;
42770;SDS011;28426;42.872;25.314;2022-11-15T05:35:00;14.77;;;10.48;;
42770;SDS011;28426;42.872;25.314;2022-11-15T05:37:49;17.20;;;11.60;;
42770;SDS011;28426;42.872;25.314;2022-11-15T05:40:41;14.82;;;11.32;;
42770;SDS011;28426;42.872;25.314;2022-11-15T05:43:30;17.73;;;11.52;;
42770;SDS011;28426;42.872;25.314;2022-11-15T05:46:24;19.08;;;11.88;;
42770;SDS011;28426;42.872;25.314;2022-11-15T05:49:13;21.15;;;11.52;;
42770;SDS011;28426;42.872;25.314;2022-11-15T05:52:07;16.92;;;11.27;;
42770;SDS011;28426;42.872;25.314;2022-11-15T05:55:00;19.70;;;12.93;;
42770;SDS011;28426;42.872;25.314;2022-11-15T05:57:54;17.10;;;12.00;;
42770;SDS011;28426;42.872;25.314;2022-11-15T06:00:42;20.80;;;13.30;;
42770;SDS011;28426;42.872;25.314;2022-11-15T06:03:32;20.40;;;13.60;;
42770;SDS011;28426;42.872;25.314;2022-11-15T06:06:20;18.00;;;12.30;;
42770;SDS011;28426;42.872;25.314;2022-11-15T06:09:09;15.63;;;11.77;;
42770;SDS011;28426;42.872;25.314;2022-11-15T06:11:59;23.50;;;13.68;;
42770;SDS011;28426;42.872;25.314;2022-11-15T06:14:50;23.02;;;14.27;;
42770;SDS011;28426;42.872;25.314;2022-11-15T06:17:39;21.55;;;14.55;;
42770;SDS011;28426;42.872;25.314;2022-11-15T06:20:28;24.23;;;14.43;;
42770;SDS011;28426;42.872;25.314;2022-11-15T06:23:18;24.33;;;14.65;;
42770;SDS011;28426;42.872;25.314;2022-11-15T06:26:07;23.42;;;14.82;;
42770;SDS011;28426;42.872;25.314;2022-11-15T06:28:56;21.95;;;14.25;;
42770;SDS011;28426;42.872;25.314;2022-11-15T06:31:48;23.00;;;14.32;;
42770;SDS011;28426;42.872;25.314;2022-11-15T06:34:38;25.40;;;14.02;;
42770;SDS011;28426;42.872;25.314;2022-11-15T06:37:29;23.60;;;14.80;;
42770;SDS011;28426;42.872;25.314;2022-11-15T06:40:18;23.60;;;15.45;;
42770;SDS011;28426;42.872;25.314;2022-11-15T06:43:07;31.08;;;17.67;;
42770;SDS011;28426;42.872;25.314;2022-11-15T06:45:57;30.38;;;19.83;;
42770;SDS011;28426;42.872;25.314;2022-11-15T06:48:49;17.50;;;11.40;;
42770;SDS011;28426;42.872;25.314;2022-11-15T06:51:38;21.90;;;13.85;;
42770;SDS011;28426;42.872;25.314;2022-11-15T06:54:27;15.32;;;10.20;;
42770;SDS011;28426;42.872;25.314;2022-11-15T06:57:16;17.30;;;11.40;;
42770;SDS011;28426;42.872;25.314;2022-11-15T07:00:06;15.65;;;10.75;;
42770;SDS011;28426;42.872;25.314;2022-11-15T07:02:59;14.90;;;9.50;;
42770;SDS011;28426;42.872;25.314;2022-11-15T07:05:55;17.35;;;10.95;;
42770;SDS011;28426;42.872;25.314;2022-11-15T07:08:51;15.65;;;10.38;;
42770;SDS011;28426;42.872;25.314;2022-11-15T07:11:40;13.38;;;9.57;;
42770;SDS011;28426;42.872;25.314;2022-11-15T07:14:29;16.38;;;11.68;;
42770;SDS011;28426;42.872;25.314;2022-11-15T07:17:18;14.30;;;10.27;;
42770;SDS011;28426;42.872;25.314;2022-11-15T07:20:08;17.88;;;12.20;;
42770;SDS011;28426;42.872;25.314;2022-11-15T07:23:02;15.88;;;11.60;;
42770;SDS011;28426;42.872;25.314;2022-11-15T07:25:52;14.40;;;9.93;;
42770;SDS011;28426;42.872;25.314;2022-11-15T07:28:41;15.45;;;10.88;;
42770;SDS011;28426;42.872;25.314;2022-11-15T07:31:30;15.50;;;10.98;;
42770;SDS011;28426;42.872;25.314;2022-11-15T07:34:19;14.75;;;10.32;;
42770;SDS011;28426;42.872;25.314;2022-11-15T07:37:09;14.25;;;9.82;;
42770;SDS011;28426;42.872;25.314;2022-11-15T07:40:02;16.00;;;10.52;;
42770;SDS011;28426;42.872;25.314;2022-11-15T07:42:51;17.67;;;12.45;;
42770;SDS011;28426;42.872;25.314;2022-11-15T07:45:44;17.90;;;11.70;;
42770;SDS011;28426;42.872;25.314;2022-11-15T07:48:37;15.38;;;10.32;;
42770;SDS011;28426;42.872;25.314;2022-11-15T07:51:29;16.83;;;11.38;;
42770;SDS011;28426;42.872;25.314;2022-11-15T07:54:18;14.65;;;9.18;;
42770;SDS011;28426;42.872;25.314;2022-11-15T07:57:10;16.63;;;9.65;;
42770;SDS011;28426;42.872;25.314;2022-11-15T07:59:59;14.98;;;10.05;;
42770;SDS011;28426;42.872;25.314;2022-11-15T08:02:48;12.32;;;8.63;;
42770;SDS011;28426;42.872;25.314;2022-11-15T08:05:37;12.63;;;8.73;;
42770;SDS011;28426;42.872;25.314;2022-11-15T08:08:28;11.85;;;8.18;;
42770;SDS011;28426;42.872;25.314;2022-11-15T08:11:17;13.10;;;8.57;;
42770;SDS011;28426;42.872;25.314;2022-11-15T08:14:09;13.48;;;9.10;;
42770;SDS011;28426;42.872;25.314;2022-11-15T08:16:58;16.15;;;9.65;;
42770;SDS011;28426;42.872;25.314;2022-11-15T08:19:47;14.23;;;7.45;;
42770;SDS011;28426;42.872;25.314;2022-11-15T08:22:36;8.70;;;6.43;;
42770;SDS011;28426;42.872;25.314;2022-11-15T08:25:26;12.38;;;7.53;;
42770;SDS011;28426;42.872;25.314;2022-11-15T08:28:16;15.95;;;8.05;;
42770;SDS011;28426;42.872;25.314;2022-11-15T08:31:12;12.93;;;7.78;;
42770;SDS011;28426;42.872;25.314;2022-11-15T08:34:02;31.60;;;13.57;;
42770;SDS011;28426;42.872;25.314;2022-11-15T08:36:51;20.20;;;9.25;;
42770;SDS011;28426;42.872;25.314;2022-11-15T08:39:40;14.50;;;9.35;;
42770;SDS011;28426;42.872;25.314;2022-11-15T08:42:29;20.42;;;10.55;;
42770;SDS011;28426;42.872;25.314;2022-11-15T08:45:18;50.17;;;19.25;;
42770;SDS011;28426;42.872;25.314;2022-11-15T08:48:10;31.33;;;14.18;;
42770;SDS011;28426;42.872;25.314;2022-11-15T08:50:59;29.30;;;14.50;;
42770;SDS011;28426;42.872;25.314;2022-11-15T08:53:48;21.92;;;10.77;;
42770;SDS011;28426;42.872;25.314;2022-11-15T08:56:37;11.80;;;7.97;;
42770;SDS011;28426;42.872;25.314;2022-11-15T08:59:27;22.50;;;9.50;;
42770;SDS011;28426;42.872;25.314;2022-11-15T09:02:16;11.80;;;7.60;;
42770;SDS011;28426;42.872;25.314;2022-11-15T09:05:08;15.13;;;8.38;;
42770;SDS011;28426;42.872;25.314;2022-11-15T09:07:58;14.90;;;8.23;;
42770;SDS011;28426;42.872;25.314;2022-11-15T09:11:08;16.63;;;8.98;;
42770;SDS011;28426;42.872;25.314;2022-11-15T09:13:58;21.33;;;9.55;;
42770;SDS011;28426;42.872;25.314;2022-11-15T09:16:47;15.30;;;9.30;;
42770;SDS011;28426;42.872;25.314;2022-11-15T09:19:36;15.20;;;9.48;;
42770;SDS011;28426;42.872;25.314;2022-11-15T09:22:28;23.50;;;10.57;;
42770;SDS011;28426;42.872;25.314;2022-11-15T09:25:17;16.27;;;9.40;;
42770;SDS011;28426;42.872;25.314;2022-11-15T09:28:06;20.13;;;9.15;;
42770;SDS011;28426;42.872;25.314;2022-11-15T09:30:57;13.25;;;8.23;;
42770;SDS011;28426;42.872;25.314;2022-11-15T09:33:46;15.07;;;8.82;;
42770;SDS011;28426;42.872;25.314;2022-11-15T09:36:36;18.88;;;9.93;;
42770;SDS011;28426;42.872;25.314;2022-11-15T09:39:28;24.92;;;10.52;;
42770;SDS011;28426;42.872;25.314;2022-11-15T09:42:29;18.55;;;9.68;;
42770;SDS011;28426;42.872;25.314;2022-11-15T09:45:34;28.33;;;13.88;;
42770;SDS011;28426;42.872;25.314;2022-11-15T09:48:35;24.10;;;10.95;;
42770;SDS011;28426;42.872;25.314;2022-11-15T09:51:40;18.02;;;9.70;;
42770;SDS011;28426;42.872;25.314;2022-11-15T09:54:20;16.48;;;10.93;;
42770;SDS011;28426;42.872;25.314;2022-11-15T09:57:20;24.02;;;11.90;;
42770;SDS011;28426;42.872;25.314;2022-11-15T09:59:57;28.30;;;12.52;;
42770;SDS011;28426;42.872;25.314;2022-11-15T10:05:44;24.88;;;12.38;;
42770;SDS011;28426;42.872;25.314;2022-11-15T10:08:22;22.45;;;12.32;;
42770;SDS011;28426;42.872;25.314;2022-11-15T10:11:02;28.47;;;12.30;;
42770;SDS011;28426;42.872;25.314;2022-11-15T10:13:59;32.63;;;13.00;;
42770;SDS011;28426;42.872;25.314;2022-11-15T10:19:38;22.98;;;12.77;;
42770;SDS011;28426;42.872;25.314;2022-11-15T10:22:18;35.60;;;16.20;;
42770;SDS011;28426;42.872;25.314;2022-11-15T10:25:16;24.55;;;13.18;;
42770;SDS011;28426;42.872;25.314;2022-11-15T10:27:59;25.90;;;13.00;;
42770;SDS011;28426;42.872;25.314;2022-11-15T10:30:37;17.35;;;12.30;;
42770;SDS011;28426;42.872;25.314;2022-11-15T10:33:15;21.67;;;12.68;;
42770;SDS011;28426;42.872;25.314;2022-11-15T10:36:18;19.17;;;12.18;;
42770;SDS011;28426;42.872;25.314;2022-11-15T10:38:53;27.90;;;13.07;;
42770;SDS011;28426;42.872;25.314;2022-11-15T10:44:23;30.38;;;15.88;;
42770;SDS011;28426;42.872;25.314;2022-11-15T10:47:20;28.45;;;16.88;;
42770;SDS011;28426;42.872;25.314;2022-11-15T10:50:03;107.53;;;23.08;;
42770;SDS011;28426;42.872;25.314;2022-11-15T10:52:36;35.75;;;15.35;;
42770;SDS011;28426;42.872;25.314;2022-11-15T10:55:21;34.63;;;15.35;;
42770;SDS011;28426;42.872;25.314;2022-11-15T10:57:54;23.85;;;13.40;;
42770;SDS011;28426;42.872;25.314;2022-11-15T11:00:32;26.52;;;16.13;;
42770;SDS011;28426;42.872;25.314;2022-11-15T11:03:20;29.65;;;15.68;;
42770;SDS011;28426;42.872;25.314;2022-11-15T11:06:05;23.35;;;15.35;;
42770;SDS011;28426;42.872;25.314;2022-11-15T11:08:38;27.48;;;15.80;;
42770;SDS011;28426;42.872;25.314;2022-11-15T11:11:09;37.28;;;16.08;;
42770;SDS011;28426;42.872;25.314;2022-11-15T11:13:39;35.72;;;16.42;;
42770;SDS011;28426;42.872;25.314;2022-11-15T11:16:20;27.65;;;15.27;;
42770;SDS011;28426;42.872;25.314;2022-11-15T11:19:08;34.55;;;16.75;;
42770;SDS011;28426;42.872;25.314;2022-11-15T11:21:51;29.42;;;16.73;;
42770;SDS011;28426;42.872;25.314;2022-11-15T11:24:32;32.85;;;16.70;;
42770;SDS011;28426;42.872;25.314;2022-11-15T11:27:11;29.27;;;15.32;;
42770;SDS011;28426;42.872;25.314;2022-11-15T11:30:00;26.63;;;14.93;;
42770;SDS011;28426;42.872;25.314;2022-11-15T11:35:46;27.90;;;14.13;;
42770;SDS011;28426;42.872;25.314;2022-11-15T11:41:35;21.08;;;13.25;;
42770;SDS011;28426;42.872;25.314;2022-11-15T11:44:23;20.00;;;13.43;;
42770;SDS011;28426;42.872;25.314;2022-11-15T11:46:59;20.85;;;13.18;;
42770;SDS011;28426;42.872;25.314;2022-11-15T11:49:32;29.63;;;14.85;;
42770;SDS011;28426;42.872;25.314;2022-11-15T11:52:12;24.55;;;13.85;;
42770;SDS011;28426;42.872;25.314;2022-11-15T11:54:48;18.23;;;13.02;;
42770;SDS011;28426;42.872;25.314;2022-11-15T11:57:28;21.33;;;13.48;;
42770;SDS011;28426;42.872;25.314;2022-11-15T12:00:10;43.15;;;14.43;;
42770;SDS011;28426;42.872;25.314;2022-11-15T12:02:48;23.25;;;14.05;;
42770;SDS011;28426;42.872;25.314;2022-11-15T12:05:32;25.85;;;14.48;;
42770;SDS011;28426;42.872;25.314;2022-11-15T12:08:15;26.08;;;15.18;;
42770;SDS011;28426;42.872;25.314;2022-11-15T12:10:54;23.13;;;13.60;;
42770;SDS011;28426;42.872;25.314;2022-11-15T12:13:30;23.08;;;13.45;;
42770;SDS011;28426;42.872;25.314;2022-11-15T12:16:05;22.70;;;13.82;;
42770;SDS011;28426;42.872;25.314;2022-11-15T12:18:41;22.45;;;14.00;;
42770;SDS011;28426;42.872;25.314;2022-11-15T12:23:58;23.90;;;13.65;;
42770;SDS011;28426;42.872;25.314;2022-11-15T12:26:33;30.63;;;15.07;;
42770;SDS011;28426;42.872;25.314;2022-11-15T12:31:45;29.10;;;15.38;;
42770;SDS011;28426;42.872;25.314;2022-11-15T12:40:16;23.48;;;14.52;;
42770;SDS011;28426;42.872;25.314;2022-11-15T12:43:32;24.13;;;14.85;;
42770;SDS011;28426;42.872;25.314;2022-11-15T12:46:19;25.90;;;15.25;;
42770;SDS011;28426;42.872;25.314;2022-11-15T12:48:54;21.60;;;14.70;;
42770;SDS011;28426;42.872;25.314;2022-11-15T12:57:31;22.08;;;15.27;;
42770;SDS011;28426;42.872;25.314;2022-11-15T13:00:36;26.13;;;16.30;;
42770;SDS011;28426;42.872;25.314;2022-11-15T13:06:04;23.67;;;15.05;;
42770;SDS011;28426;42.872;25.314;2022-11-15T13:08:47;26.70;;;17.85;;
42770;SDS011;28426;42.872;25.314;2022-11-15T13:20:02;26.77;;;17.20;;
42770;SDS011;28426;42.872;25.314;2022-11-15T13:22:47;24.15;;;16.85;;
42770;SDS011;28426;42.872;25.314;2022-11-15T13:28:19;30.63;;;16.70;;
42770;SDS011;28426;42.872;25.314;2022-11-15T13:30:58;23.50;;;16.17;;
42770;SDS011;28426;42.872;25.314;2022-11-15T13:33:33;28.48;;;17.13;;
42770;SDS011;28426;42.872;25.314;2022-11-15T13:36:07;27.83;;;18.00;;
42770;SDS011;28426;42.872;25.314;2022-11-15T13:38:43;31.48;;;17.23;;
42770;SDS011;28426;42.872;25.314;2022-11-15T13:41:17;32.20;;;16.95;;
42770;SDS011;28426;42.872;25.314;2022-11-15T13:43:50;28.13;;;17.20;;
42770;SDS011;28426;42.872;25.314;2022-11-15T13:46:22;29.10;;;17.73;;
42770;SDS011;28426;42.872;25.314;2022-11-15T13:48:57;33.05;;;17.38;;
42770;SDS011;28426;42.872;25.314;2022-11-15T13:51:33;25.17;;;17.30;;
42770;SDS011;28426;42.872;25.314;2022-11-15T13:54:09;30.98;;;18.52;;
42770;SDS011;28426;42.872;25.314;2022-11-15T13:56:47;31.70;;;17.58;;
42770;SDS011;28426;42.872;25.314;2022-11-15T13:59:24;33.10;;;17.77;;
42770;SDS011;28426;42.872;25.314;2022-11-15T14:01:56;35.42;;;17.58;;
42770;SDS011;28426;42.872;25.314;2022-11-15T14:04:33;28.50;;;16.73;;
42770;SDS011;28426;42.872;25.314;2022-11-15T14:07:04;34.58;;;17.20;;
42770;SDS011;28426;42.872;25.314;2022-11-15T14:09:37;32.38;;;19.00;;
42770;SDS011;28426;42.872;25.314;2022-11-15T14:14:59;33.00;;;17.83;;
42770;SDS011;28426;42.872;25.314;2022-11-15T14:17:36;30.98;;;18.95;;
42770;SDS011;28426;42.872;25.314;2022-11-15T14:20:25;26.80;;;17.45;;
42770;SDS011;28426;42.872;25.314;2022-11-15T14:22:59;30.80;;;18.17;;
42770;SDS011;28426;42.872;25.314;2022-11-15T14:25:31;25.83;;;16.83;;
42770;SDS011;28426;42.872;25.314;2022-11-15T14:28:12;25.10;;;16.52;;
42770;SDS011;28426;42.872;25.314;2022-11-15T14:30:45;27.02;;;16.83;;
42770;SDS011;28426;42.872;25.314;2022-11-15T14:33:18;29.38;;;17.45;;
42770;SDS011;28426;42.872;25.314;2022-11-15T14:35:54;30.98;;;17.27;;
42770;SDS011;28426;42.872;25.314;2022-11-15T14:38:25;25.95;;;16.95;;
42770;SDS011;28426;42.872;25.314;2022-11-15T14:40:56;25.25;;;15.93;;
42770;SDS011;28426;42.872;25.314;2022-11-15T14:43:27;25.13;;;16.73;;
42770;SDS011;28426;42.872;25.314;2022-11-15T14:45:58;25.45;;;17.02;;
42770;SDS011;28426;42.872;25.314;2022-11-15T14:48:28;27.45;;;16.63;;
42770;SDS011;28426;42.872;25.314;2022-11-15T14:51:02;25.83;;;16.42;;
42770;SDS011;28426;42.872;25.314;2022-11-15T14:53:33;35.45;;;17.73;;
42770;SDS011;28426;42.872;25.314;2022-11-15T14:56:04;28.45;;;19.08;;
42770;SDS011;28426;42.872;25.314;2022-11-15T14:58:34;28.08;;;16.98;;
42770;SDS011;28426;42.872;25.314;2022-11-15T15:01:09;33.17;;;16.88;;
42770;SDS011;28426;42.872;25.314;2022-11-15T15:03:42;34.72;;;16.75;;
42770;SDS011;28426;42.872;25.314;2022-11-15T15:06:16;24.83;;;17.10;;
42770;SDS011;28426;42.872;25.314;2022-11-15T15:08:47;33.92;;;19.25;;
42770;SDS011;28426;42.872;25.314;2022-11-15T15:11:19;30.33;;;17.90;;
42770;SDS011;28426;42.872;25.314;2022-11-15T15:13:53;28.50;;;16.60;;
42770;SDS011;28426;42.872;25.314;2022-11-15T15:16:25;30.05;;;16.40;;
42770;SDS011;28426;42.872;25.314;2022-11-15T15:18:55;25.65;;;17.60;;
42770;SDS011;28426;42.872;25.314;2022-11-15T15:21:28;26.27;;;16.83;;
42770;SDS011;28426;42.872;25.314;2022-11-15T15:24:03;35.20;;;21.25;;
42770;SDS011;28426;42.872;25.314;2022-11-15T15:26:34;32.47;;;22.85;;
42770;SDS011;28426;42.872;25.314;2022-11-15T15:29:05;32.90;;;22.35;;
42770;SDS011;28426;42.872;25.314;2022-11-15T15:31:36;33.47;;;22.50;;
42770;SDS011;28426;42.872;25.314;2022-11-15T15:34:07;28.38;;;20.95;;
42770;SDS011;28426;42.872;25.314;2022-11-15T15:36:45;26.25;;;20.30;;
42770;SDS011;28426;42.872;25.314;2022-11-15T15:39:16;26.05;;;19.25;;
42770;SDS011;28426;42.872;25.314;2022-11-15T15:41:46;30.60;;;20.42;;
42770;SDS011;28426;42.872;25.314;2022-11-15T15:44:23;34.55;;;20.05;;
42770;SDS011;28426;42.872;25.314;2022-11-15T15:46:54;30.27;;;19.80;;
42770;SDS011;28426;42.872;25.314;2022-11-15T15:49:24;29.20;;;19.77;;
42770;SDS011;28426;42.872;25.314;2022-11-15T15:51:58;31.58;;;19.95;;
42770;SDS011;28426;42.872;25.314;2022-11-15T15:54:28;28.15;;;18.75;;
42770;SDS011;28426;42.872;25.314;2022-11-15T15:56:59;29.35;;;19.05;;
42770;SDS011;28426;42.872;25.314;2022-11-15T15:59:30;30.73;;;20.83;;
42770;SDS011;28426;42.872;25.314;2022-11-15T16:02:01;38.35;;;21.25;;
42770;SDS011;28426;42.872;25.314;2022-11-15T16:04:32;30.90;;;20.60;;
42770;SDS011;28426;42.872;25.314;2022-11-15T16:07:05;29.25;;;19.85;;
42770;SDS011;28426;42.872;25.314;2022-11-15T16:09:45;31.33;;;19.95;;
42770;SDS011;28426;42.872;25.314;2022-11-15T16:12:31;34.75;;;22.33;;
42770;SDS011;28426;42.872;25.314;2022-11-15T16:15:03;36.70;;;22.70;;
42770;SDS011;28426;42.872;25.314;2022-11-15T16:17:35;36.75;;;23.52;;
42770;SDS011;28426;42.872;25.314;2022-11-15T16:20:26;37.10;;;24.63;;
42770;SDS011;28426;42.872;25.314;2022-11-15T16:23:04;35.67;;;22.60;;
42770;SDS011;28426;42.872;25.314;2022-11-15T16:28:18;55.97;;;32.10;;
42770;SDS011;28426;42.872;25.314;2022-11-15T16:30:58;46.45;;;28.85;;
42770;SDS011;28426;42.872;25.314;2022-11-15T16:33:30;45.22;;;27.95;;
42770;SDS011;28426;42.872;25.314;2022-11-15T16:36:02;46.35;;;28.10;;
42770;SDS011;28426;42.872;25.314;2022-11-15T16:38:35;43.83;;;26.98;;
42770;SDS011;28426;42.872;25.314;2022-11-15T16:41:06;44.50;;;27.40;;
42770;SDS011;28426;42.872;25.314;2022-11-15T16:43:37;44.20;;;27.00;;
42770;SDS011;28426;42.872;25.314;2022-11-15T16:46:11;52.65;;;27.02;;
42770;SDS011;28426;42.872;25.314;2022-11-15T16:48:44;41.45;;;26.25;;
42770;SDS011;28426;42.872;25.314;2022-11-15T16:51:15;43.30;;;27.45;;
42770;SDS011;28426;42.872;25.314;2022-11-15T16:53:48;48.03;;;28.15;;
42770;SDS011;28426;42.872;25.314;2022-11-15T16:56:21;40.55;;;26.23;;
42770;SDS011;28426;42.872;25.314;2022-11-15T16:58:54;34.22;;;20.23;;